Time;durP1;ratioP1;P1;durP2;ratioP2;P2;SDS_P1;SDS_P2;PMS_P1;PMS_P2;Temp;Humidity;BMP_temperature;BMP_pressure;BME280_temperature;BME280_humidity;BME280_pressure;Samples;Min_cycle;Max_cycle;Signal;HPM_P1;HPM_P2
2023/08/27 00:00:08;;;;;;;6.70;3.77;;;18.40;99.90;;;;;;5073191;28;20207;-55
2023/08/27 00:02:33;;;;;;;4.93;3.83;;;18.40;99.90;;;;;;5071489;28;20712;-55
2023/08/27 00:04:59;;;;;;;4.00;3.23;;;18.30;99.90;;;;;;5072776;28;20204;-56
2023/08/27 00:07:28;;;;;;;4.93;3.70;;;18.30;99.90;;;;;;5054831;28;20645;-56
2023/08/27 00:09:54;;;;;;;6.40;3.67;;;18.30;99.90;;;;;;5073172;28;20562;-56
2023/08/27 00:12:19;;;;;;;5.70;4.13;;;18.30;99.90;;;;;;5072849;28;20957;-54
2023/08/27 00:14:45;;;;;;;5.93;4.13;;;18.20;99.90;;;;;;5073188;28;20712;-55
2023/08/27 00:17:10;;;;;;;4.37;3.97;;;18.20;99.90;;;;;;5072578;28;20421;-55
2023/08/27 00:19:36;;;;;;;4.13;3.67;;;18.20;99.90;;;;;;5053625;28;20230;-55
2023/08/27 00:22:01;;;;;;;4.43;3.33;;;18.10;99.90;;;;;;5050480;28;20200;-55
2023/08/27 00:24:27;;;;;;;5.10;4.17;;;18.10;99.90;;;;;;5072176;28;20695;-56
2023/08/27 00:26:52;;;;;;;5.47;3.70;;;18.00;99.90;;;;;;5054621;28;20260;-56
2023/08/27 00:29:19;;;;;;;5.10;4.27;;;17.90;99.90;;;;;;5072983;28;20200;-56
2023/08/27 00:31:45;;;;;;;4.67;3.37;;;17.80;99.90;;;;;;5072663;28;20250;-56
2023/08/27 00:34:11;;;;;;;4.67;4.10;;;17.80;99.90;;;;;;5054547;28;20597;-56
2023/08/27 00:36:36;;;;;;;3.67;3.37;;;17.80;99.90;;;;;;5054969;28;20268;-56
2023/08/27 00:39:04;;;;;;;5.37;4.13;;;17.80;99.90;;;;;;5074141;28;20225;-56
2023/08/27 00:41:29;;;;;;;4.20;3.80;;;17.70;99.90;;;;;;5072329;28;20694;-58
2023/08/27 00:43:55;;;;;;;4.87;4.17;;;17.60;99.90;;;;;;5067793;28;20222;-57
2023/08/27 00:46:20;;;;;;;6.33;4.20;;;17.60;99.90;;;;;;5072480;28;20202;-56
2023/08/27 00:48:46;;;;;;;5.47;3.90;;;17.60;99.90;;;;;;5072195;28;20202;-56
2023/08/27 00:51:12;;;;;;;5.47;4.00;;;17.50;99.90;;;;;;5072183;28;20208;-65
2023/08/27 00:53:38;;;;;;;4.07;3.40;;;17.50;99.90;;;;;;5073619;28;20663;-59
2023/08/27 00:56:05;;;;;;;9.17;4.83;;;17.50;99.90;;;;;;5071492;28;20271;-62
2023/08/27 00:58:31;;;;;;;5.47;3.90;;;17.50;99.90;;;;;;5054116;28;20306;-64
2023/08/27 01:00:57;;;;;;;4.60;3.80;;;17.50;99.90;;;;;;5072148;28;20197;-64
2023/08/27 01:03:23;;;;;;;7.60;4.30;;;17.50;99.90;;;;;;5053778;28;20704;-55
2023/08/27 01:05:48;;;;;;;5.73;4.07;;;17.50;99.90;;;;;;5054213;28;20281;-56
2023/08/27 01:08:29;;;;;;;4.20;3.80;;;17.40;99.90;;;;;;5054530;28;20416;-57
2023/08/27 01:11:08;;;;;;;3.50;3.20;;;17.40;99.90;;;;;;5069868;28;20569;-55
2023/08/27 01:13:46;;;;;;;4.57;3.33;;;17.50;99.90;;;;;;5053990;28;20731;-56
2023/08/27 01:16:15;;;;;;;8.03;3.70;;;17.50;99.90;;;;;;5069507;28;20671;-56
2023/08/27 01:18:41;;;;;;;5.57;3.40;;;17.50;99.90;;;;;;5071979;28;20200;-56
2023/08/27 01:21:36;;;;;;;6.70;3.73;;;17.50;99.90;;;;;;5071310;28;20284;-56
2023/08/27 01:24:02;;;;;;;3.73;3.43;;;17.50;99.90;;;;;;5058997;28;20201;-56
2023/08/27 01:26:38;;;;;;;5.20;4.10;;;17.50;99.90;;;;;;5071908;28;20200;-55
2023/08/27 01:29:40;;;;;;;7.00;3.53;;;17.50;99.90;;;;;;5072232;28;20201;-56
2023/08/27 01:32:14;;;;;;;7.50;3.83;;;17.50;99.90;;;;;;5072103;28;21324;-57
2023/08/27 01:34:40;;;;;;;6.73;4.23;;;17.40;99.90;;;;;;5072190;28;20200;-56
2023/08/27 01:37:07;;;;;;;4.77;3.77;;;17.40;99.90;;;;;;5072412;28;20241;-56
2023/08/27 01:39:33;;;;;;;5.37;3.93;;;17.40;99.90;;;;;;5071931;28;20714;-55
2023/08/27 01:41:58;;;;;;;7.23;4.47;;;17.40;99.90;;;;;;5053047;28;20294;-56
2023/08/27 01:44:24;;;;;;;4.83;3.87;;;17.40;99.90;;;;;;5050358;28;20190;-56
2023/08/27 01:46:49;;;;;;;5.27;3.77;;;17.30;99.90;;;;;;5055684;28;20196;-56
2023/08/27 01:49:15;;;;;;;5.07;3.93;;;17.30;99.90;;;;;;5071521;28;20198;-55
2023/08/27 01:51:41;;;;;;;4.43;4.03;;;17.30;99.90;;;;;;5071851;28;20216;-54
2023/08/27 01:54:06;;;;;;;4.67;3.57;;;17.30;99.90;;;;;;5071755;28;20673;-55
2023/08/27 01:56:32;;;;;;;6.20;3.80;;;17.30;99.90;;;;;;5071423;28;20240;-55
2023/08/27 01:58:57;;;;;;;4.77;3.70;;;17.30;99.90;;;;;;5071473;28;20217;-55
2023/08/27 02:01:23;;;;;;;4.80;3.57;;;17.30;99.90;;;;;;5073681;28;20205;-55
2023/08/27 02:03:48;;;;;;;4.87;3.97;;;17.20;99.90;;;;;;5071997;28;20869;-55
2023/08/27 02:06:14;;;;;;;5.40;3.60;;;17.20;99.90;;;;;;5073444;28;20208;-56
2023/08/27 02:08:39;;;;;;;4.83;3.60;;;17.20;99.90;;;;;;5056953;28;20193;-56
2023/08/27 02:11:05;;;;;;;4.80;4.30;;;17.20;99.90;;;;;;5075745;28;20190;-56
2023/08/27 02:13:30;;;;;;;7.00;4.27;;;17.10;99.90;;;;;;5075469;28;20310;-56
2023/08/27 02:15:56;;;;;;;4.33;3.83;;;17.10;99.90;;;;;;5077533;28;20204;-56
2023/08/27 02:18:22;;;;;;;4.70;4.10;;;17.10;99.90;;;;;;5076717;28;20287;-55
2023/08/27 02:20:47;;;;;;;4.27;3.80;;;17.00;99.90;;;;;;5075085;28;20315;-55
2023/08/27 02:23:13;;;;;;;6.60;4.10;;;17.00;99.90;;;;;;5074780;28;20209;-55
2023/08/27 02:25:38;;;;;;;5.77;3.97;;;17.00;99.90;;;;;;5056709;28;20658;-56
2023/08/27 02:28:04;;;;;;;8.83;4.27;;;17.00;99.90;;;;;;5075267;28;20242;-56
2023/08/27 02:30:30;;;;;;;5.40;4.67;;;17.10;99.90;;;;;;5076977;28;20273;-56
2023/08/27 02:32:55;;;;;;;5.77;4.33;;;17.10;99.90;;;;;;5076500;28;20603;-56
2023/08/27 02:35:21;;;;;;;5.27;4.57;;;17.10;99.90;;;;;;5075851;28;20600;-55
2023/08/27 02:37:46;;;;;;;7.53;4.47;;;17.10;99.90;;;;;;5074136;28;20228;-55
2023/08/27 02:40:13;;;;;;;5.23;3.80;;;17.00;99.90;;;;;;5074554;28;20193;-55
2023/08/27 02:42:39;;;;;;;4.23;3.83;;;17.00;99.90;;;;;;5074282;28;20219;-56
2023/08/27 02:45:05;;;;;;;5.03;3.87;;;17.00;99.90;;;;;;5052707;28;20201;-56
2023/08/27 02:47:31;;;;;;;4.47;4.07;;;16.90;99.90;;;;;;5075897;28;20209;-56
2023/08/27 02:49:56;;;;;;;7.10;4.80;;;16.90;99.90;;;;;;5074294;28;20600;-55
2023/08/27 02:52:21;;;;;;;6.13;4.57;;;16.90;99.90;;;;;;5074964;28;20191;-55
2023/08/27 02:54:47;;;;;;;4.10;3.70;;;16.80;99.90;;;;;;5074267;28;20707;-56
2023/08/27 02:57:12;;;;;;;4.17;3.77;;;16.80;99.90;;;;;;5074319;28;20687;-56
2023/08/27 02:59:38;;;;;;;4.47;4.07;;;16.90;99.90;;;;;;5056172;28;20212;-56
2023/08/27 03:02:03;;;;;;;6.17;3.80;;;16.80;99.90;;;;;;5057985;28;20202;-56
2023/08/27 03:04:29;;;;;;;4.83;3.53;;;16.80;99.90;;;;;;5073869;28;20218;-55
2023/08/27 03:06:54;;;;;;;4.87;4.03;;;16.80;99.90;;;;;;5074124;28;20205;-56
2023/08/27 03:09:20;;;;;;;5.60;4.17;;;16.80;99.90;;;;;;5074375;28;20282;-56
2023/08/27 03:11:46;;;;;;;4.87;4.07;;;16.80;99.90;;;;;;5073858;28;20269;-55
2023/08/27 03:14:11;;;;;;;4.70;3.80;;;16.80;99.90;;;;;;5073950;28;20391;-57
2023/08/27 03:16:37;;;;;;;4.50;3.80;;;16.80;99.90;;;;;;5075666;28;20511;-61
2023/08/27 03:19:02;;;;;;;4.10;3.80;;;16.70;99.90;;;;;;5073036;28;20756;-58
2023/08/27 03:21:28;;;;;;;5.97;3.83;;;16.70;99.90;;;;;;5071701;28;20864;-66
2023/08/27 03:23:53;;;;;;;5.33;4.00;;;16.70;99.90;;;;;;5054903;28;20197;-56
2023/08/27 03:26:19;;;;;;;5.10;4.63;;;16.60;99.90;;;;;;5073448;28;20239;-56
2023/08/27 03:28:46;;;;;;;5.23;4.10;;;16.70;99.90;;;;;;5073463;28;20190;-56
2023/08/27 03:31:12;;;;;;;4.03;3.63;;;16.70;99.90;;;;;;5074360;28;20284;-55
2023/08/27 03:33:37;;;;;;;5.47;4.53;;;16.70;99.90;;;;;;5076036;28;20282;-56
2023/08/27 03:36:03;;;;;;;5.57;4.60;;;16.70;99.90;;;;;;5055707;28;20197;-55
2023/08/27 03:38:29;;;;;;;5.03;4.53;;;16.80;99.90;;;;;;5073687;28;20202;-56
2023/08/27 03:40:54;;;;;;;4.20;3.77;;;16.80;99.90;;;;;;5073458;28;20206;-56
2023/08/27 03:43:20;;;;;;;5.80;4.57;;;16.70;99.90;;;;;;5074984;28;20209;-56
2023/08/27 03:45:47;;;;;;;4.93;4.43;;;16.70;99.90;;;;;;5076571;28;20207;-55
2023/08/27 03:48:12;;;;;;;5.03;4.13;;;16.70;99.90;;;;;;5057001;28;20586;-55
2023/08/27 03:50:38;;;;;;;5.97;4.73;;;16.70;99.90;;;;;;5073228;28;20773;-56
2023/08/27 03:53:04;;;;;;;6.00;4.60;;;16.70;99.90;;;;;;5073281;28;20286;-56
2023/08/27 03:55:30;;;;;;;5.00;4.60;;;16.70;99.90;;;;;;5073687;28;20262;-56
2023/08/27 03:57:56;;;;;;;4.97;4.33;;;16.70;99.90;;;;;;5073912;28;20221;-56
2023/08/27 04:00:22;;;;;;;4.93;4.53;;;16.60;99.90;;;;;;5074181;28;20201;-56
2023/08/27 04:02:47;;;;;;;5.77;4.17;;;16.70;99.90;;;;;;5074120;28;20208;-57
2023/08/27 04:05:13;;;;;;;5.07;3.90;;;16.70;99.90;;;;;;5072883;28;20202;-56
2023/08/27 04:07:38;;;;;;;6.57;4.93;;;16.70;99.90;;;;;;5073062;28;20687;-56
2023/08/27 04:10:04;;;;;;;7.63;5.07;;;16.70;99.90;;;;;;5070240;28;21216;-61
2023/08/27 04:12:33;;;;;;;7.07;5.22;;;16.70;99.90;;;;;;5071817;28;20739;-58
2023/08/27 04:14:58;;;;;;;7.93;5.27;;;16.60;99.90;;;;;;5072000;28;20205;-56
2023/08/27 04:17:24;;;;;;;7.77;4.57;;;16.60;99.90;;;;;;5070635;28;20211;-64
2023/08/27 04:19:50;;;;;;;7.20;4.93;;;16.60;99.90;;;;;;5056396;28;20218;-63
2023/08/27 04:22:15;;;;;;;5.97;5.40;;;16.60;99.90;;;;;;5072809;28;20276;-62
2023/08/27 04:24:44;;;;;;;5.87;5.30;;;16.60;99.90;;;;;;5054063;28;20238;-54
2023/08/27 04:27:10;;;;;;;7.43;4.70;;;16.60;99.90;;;;;;5073066;28;20202;-55
2023/08/27 04:29:37;;;;;;;6.77;5.63;;;16.60;99.90;;;;;;5073392;28;21122;-56
2023/08/27 04:32:03;;;;;;;6.83;5.70;;;16.60;99.90;;;;;;5055296;28;20248;-62
2023/08/27 04:34:33;;;;;;;6.73;5.60;;;16.60;99.90;;;;;;5075373;28;20269;-62
2023/08/27 04:37:00;;;;;;;6.33;5.30;;;16.60;99.90;;;;;;5057979;28;20305;-63
2023/08/27 04:41:58;;;;;;;6.47;5.00;;;16.70;99.90;;;;;;5010223;28;20242;-60
2023/08/27 04:44:26;;;;;;;8.03;5.67;;;16.70;99.90;;;;;;4990913;28;20211;-60
2023/08/27 04:46:52;;;;;;;6.60;6.00;;;16.70;99.90;;;;;;5012953;28;20567;-59
2023/08/27 04:49:17;;;;;;;9.50;5.57;;;16.70;99.90;;;;;;5012324;28;20210;-58
2023/08/27 04:51:43;;;;;;;8.97;6.17;;;16.70;99.90;;;;;;5016333;28;20582;-55
2023/08/27 04:54:08;;;;;;;7.93;6.15;;;16.70;99.90;;;;;;5016412;28;20421;-56
2023/08/27 04:56:34;;;;;;;6.07;5.50;;;16.70;99.90;;;;;;5001725;28;20246;-56
2023/08/27 04:58:59;;;;;;;6.20;5.60;;;16.80;99.90;;;;;;5018840;28;20199;-56
2023/08/27 05:01:25;;;;;;;5.70;5.07;;;16.80;99.90;;;;;;4994426;28;20197;-55
2023/08/27 05:03:50;;;;;;;6.27;5.27;;;16.80;99.90;;;;;;4998646;28;20203;-55
2023/08/27 05:06:16;;;;;;;7.13;5.63;;;16.80;99.90;;;;;;5016472;28;20196;-56
2023/08/27 05:08:42;;;;;;;7.13;6.17;;;16.80;99.90;;;;;;5011848;28;20274;-56
2023/08/27 05:11:08;;;;;;;8.47;6.77;;;16.80;99.90;;;;;;4994372;28;21134;-57
2023/08/27 05:13:33;;;;;;;8.47;6.10;;;16.90;99.90;;;;;;4996651;28;20203;-56
2023/08/27 05:15:59;;;;;;;7.57;5.80;;;16.90;99.90;;;;;;5018700;28;20200;-57
2023/08/27 05:18:24;;;;;;;8.40;6.13;;;16.90;99.90;;;;;;5000681;28;20569;-55
2023/08/27 05:20:50;;;;;;;8.83;6.33;;;16.90;99.90;;;;;;5014208;28;20701;-56
2023/08/27 05:23:17;;;;;;;7.33;5.60;;;16.90;99.90;;;;;;4998266;28;20608;-56
2023/08/27 05:25:42;;;;;;;9.13;6.20;;;16.90;99.90;;;;;;5015673;28;20212;-56
2023/08/27 05:28:08;;;;;;;7.80;5.93;;;17.00;99.90;;;;;;5021623;28;20238;-58
2023/08/27 05:30:33;;;;;;;6.47;5.40;;;17.00;99.90;;;;;;4997922;28;21002;-56
2023/08/27 05:32:59;;;;;;;7.13;6.43;;;17.00;99.90;;;;;;4998168;28;20246;-56
2023/08/27 05:35:24;;;;;;;7.33;6.37;;;17.00;99.90;;;;;;4995052;28;20190;-56
2023/08/27 05:37:50;;;;;;;7.87;6.80;;;17.10;99.90;;;;;;5015258;28;20630;-56
2023/08/27 05:40:19;;;;;;;9.23;7.10;;;17.10;99.90;;;;;;5022204;28;20700;-57
2023/08/27 05:42:44;;;;;;;6.80;5.97;;;17.10;99.90;;;;;;5040281;28;20246;-56
2023/08/27 05:45:11;;;;;;;6.90;6.27;;;17.20;99.90;;;;;;5015379;28;20208;-56
2023/08/27 05:47:36;;;;;;;8.07;6.10;;;17.20;99.90;;;;;;5018761;28;20207;-56
2023/08/27 05:50:02;;;;;;;13.70;6.50;;;17.20;99.90;;;;;;5026869;28;20580;-57
2023/08/27 05:52:27;;;;;;;7.33;6.57;;;17.30;99.90;;;;;;5019215;28;20322;-57
2023/08/27 05:54:53;;;;;;;8.20;6.00;;;17.40;99.90;;;;;;5023497;28;20227;-56
2023/08/27 05:57:18;;;;;;;9.07;5.70;;;17.40;99.90;;;;;;5021144;28;20330;-55
2023/08/27 05:59:44;;;;;;;7.33;6.23;;;17.50;99.90;;;;;;5021672;28;20204;-56
2023/08/27 06:02:10;;;;;;;8.77;6.50;;;17.50;99.90;;;;;;4999496;28;20192;-56
2023/08/27 06:04:35;;;;;;;8.20;7.37;;;17.60;99.90;;;;;;5014902;28;20208;-58
2023/08/27 06:07:01;;;;;;;7.70;6.90;;;17.60;99.90;;;;;;5018739;28;20243;-57
2023/08/27 06:09:26;;;;;;;8.27;6.70;;;17.60;99.90;;;;;;5023227;28;20192;-59
2023/08/27 06:11:52;;;;;;;11.10;7.57;;;17.70;99.90;;;;;;5007141;28;20512;-60
2023/08/27 06:14:17;;;;;;;7.50;6.80;;;17.70;99.90;;;;;;5008895;28;20280;-59
2023/08/27 06:16:43;;;;;;;7.53;6.83;;;17.80;99.90;;;;;;5007124;28;20213;-54
2023/08/27 06:19:09;;;;;;;8.93;6.87;;;17.80;99.90;;;;;;5022157;28;20205;-55
2023/08/27 06:21:34;;;;;;;10.23;7.10;;;17.90;99.90;;;;;;5029001;28;20207;-55
2023/08/27 06:24:00;;;;;;;7.83;7.03;;;17.90;99.90;;;;;;5027351;28;20221;-55
2023/08/27 06:26:25;;;;;;;8.37;6.47;;;18.00;99.90;;;;;;5028449;28;20201;-53
2023/08/27 06:28:51;;;;;;;9.33;6.50;;;18.00;99.90;;;;;;5027946;28;20202;-54
2023/08/27 06:31:16;;;;;;;8.10;5.90;;;18.10;99.90;;;;;;5023765;28;20212;-58
2023/08/27 06:33:42;;;;;;;7.70;5.90;;;18.10;99.90;;;;;;4997894;28;20252;-55
2023/08/27 06:36:07;;;;;;;6.87;6.17;;;18.20;99.90;;;;;;5021291;28;20563;-56
2023/08/27 06:38:33;;;;;;;7.43;4.40;;;18.30;99.90;;;;;;5019276;28;20211;-55
2023/08/27 06:40:59;;;;;;;4.77;4.37;;;18.40;99.90;;;;;;5020296;28;20686;-56
2023/08/27 06:43:25;;;;;;;4.07;3.53;;;18.50;99.90;;;;;;5022130;28;20218;-56
2023/08/27 06:45:51;;;;;;;6.03;3.87;;;18.60;99.90;;;;;;5020398;28;20651;-56
2023/08/27 06:48:16;;;;;;;4.90;3.43;;;18.70;99.90;;;;;;5022213;28;20204;-60
2023/08/27 06:50:42;;;;;;;5.70;3.40;;;18.70;99.90;;;;;;5024654;28;20203;-57
2023/08/27 06:53:09;;;;;;;5.83;2.90;;;18.70;99.90;;;;;;5018070;28;20198;-55
2023/08/27 06:55:35;;;;;;;3.93;3.00;;;18.90;99.90;;;;;;5021386;28;20224;-56
2023/08/27 06:58:01;;;;;;;7.43;4.20;;;18.90;99.90;;;;;;5024064;28;20215;-55
2023/08/27 07:00:26;;;;;;;4.87;3.27;;;19.00;99.90;;;;;;5001656;28;20271;-56
2023/08/27 07:02:53;;;;;;;3.60;2.97;;;19.00;99.90;;;;;;5004967;28;20210;-55
2023/08/27 07:05:19;;;;;;;3.67;3.37;;;19.10;99.90;;;;;;5020681;28;20262;-56
2023/08/27 07:07:45;;;;;;;4.70;2.87;;;19.10;99.90;;;;;;5019946;28;20201;-55
2023/08/27 07:10:11;;;;;;;4.00;3.23;;;19.10;99.90;;;;;;5021898;28;20212;-55
2023/08/27 07:12:38;;;;;;;5.03;3.20;;;19.10;99.90;;;;;;5005256;28;20668;-59
2023/08/27 07:15:05;;;;;;;3.57;2.87;;;19.20;99.90;;;;;;5019292;28;20201;-56
2023/08/27 07:17:34;;;;;;;4.93;3.40;;;19.20;99.90;;;;;;5019352;28;20677;-55
2023/08/27 07:20:00;;;;;;;2.87;2.67;;;19.20;99.90;;;;;;5019761;28;20280;-55
2023/08/27 07:22:26;;;;;;;2.70;2.50;;;19.30;99.90;;;;;;4994047;28;20598;-56
2023/08/27 07:24:52;;;;;;;5.13;3.07;;;19.30;99.90;;;;;;4997695;28;20187;-55
2023/08/27 07:27:18;;;;;;;5.07;3.23;;;19.40;99.90;;;;;;5021004;28;20741;-55
2023/08/27 07:29:43;;;;;;;3.03;2.73;;;19.50;99.90;;;;;;5002439;28;20270;-56
2023/08/27 07:32:09;;;;;;;5.37;2.70;;;19.60;99.90;;;;;;5021824;28;20216;-55
2023/08/27 07:34:35;;;;;;;5.80;3.03;;;19.70;99.90;;;;;;5019817;28;20205;-55
2023/08/27 07:37:00;;;;;;;2.57;2.37;;;19.60;99.90;;;;;;4995885;28;20293;-55
2023/08/27 07:39:26;;;;;;;3.80;2.73;;;19.60;99.90;;;;;;5024797;28;20234;-55
2023/08/27 07:41:52;;;;;;;3.90;2.43;;;19.70;99.90;;;;;;5023095;28;20230;-55
2023/08/27 07:44:18;;;;;;;3.30;2.33;;;19.60;99.90;;;;;;4995968;28;20590;-56
2023/08/27 07:46:43;;;;;;;2.90;2.60;;;19.70;99.90;;;;;;5022290;28;20206;-56
2023/08/27 07:49:09;;;;;;;3.07;2.73;;;19.70;99.90;;;;;;5023167;28;20225;-56
2023/08/27 07:51:36;;;;;;;3.40;2.87;;;19.70;99.90;;;;;;4999595;28;20218;-56
2023/08/27 07:54:01;;;;;;;4.20;3.40;;;19.80;99.90;;;;;;5017897;28;21094;-56
2023/08/27 07:56:27;;;;;;;3.77;2.87;;;19.90;99.90;;;;;;5021457;28;20201;-65
2023/08/27 07:58:53;;;;;;;7.10;2.77;;;20.00;99.90;;;;;;4995505;28;21041;-61
2023/08/27 08:01:18;;;;;;;3.03;2.80;;;19.90;99.90;;;;;;5000342;28;20197;-61
2023/08/27 08:03:44;;;;;;;2.27;2.07;;;20.10;99.90;;;;;;5031585;28;20526;-56
2023/08/27 08:06:09;;;;;;;4.63;2.77;;;20.00;99.90;;;;;;5017272;28;20215;-54
2023/08/27 08:08:35;;;;;;;2.17;1.97;;;20.10;99.90;;;;;;5022417;28;20281;-56
2023/08/27 08:11:01;;;;;;;3.07;1.93;;;20.20;99.90;;;;;;5020939;28;20213;-56
2023/08/27 08:13:27;;;;;;;3.43;1.93;;;20.30;99.90;;;;;;5019353;28;20272;-55
2023/08/27 08:15:53;;;;;;;2.50;2.30;;;20.30;99.90;;;;;;5024159;28;20306;-55
2023/08/27 08:18:18;;;;;;;3.47;2.07;;;20.30;99.90;;;;;;4999642;28;20219;-56
2023/08/27 08:20:44;;;;;;;2.10;1.83;;;20.50;99.90;;;;;;5022642;28;20200;-56
2023/08/27 08:23:10;;;;;;;6.37;2.23;;;20.60;99.90;;;;;;5018018;28;20202;-55
2023/08/27 08:25:37;;;;;;;2.53;2.30;;;20.70;99.90;;;;;;5017870;28;20619;-56
2023/08/27 08:28:03;;;;;;;7.07;2.80;;;20.60;99.90;;;;;;5020644;28;20203;-55
2023/08/27 08:30:29;;;;;;;5.27;2.40;;;20.70;99.90;;;;;;5019499;28;20296;-55
2023/08/27 08:32:54;;;;;;;1.77;1.67;;;20.70;99.90;;;;;;5002689;28;20222;-55
2023/08/27 08:35:20;;;;;;;2.47;1.90;;;20.70;99.90;;;;;;5019311;28;20203;-55
2023/08/27 08:37:46;;;;;;;4.90;2.43;;;20.60;99.90;;;;;;5004643;28;20214;-55
2023/08/27 08:40:11;;;;;;;2.43;1.90;;;20.70;99.90;;;;;;5021474;28;20642;-55
2023/08/27 08:42:57;;;;;;;2.07;1.83;;;20.90;99.90;;;;;;5018204;28;20355;-55
2023/08/27 08:45:32;;;;;;;2.20;2.00;;;20.90;99.90;;;;;;4999264;28;20363;-55
2023/08/27 08:48:01;;;;;;;2.30;1.80;;;21.00;99.90;;;;;;4999293;28;20695;-55
2023/08/27 08:50:32;;;;;;;4.27;2.47;;;21.00;99.90;;;;;;5017636;28;20203;-56
2023/08/27 08:53:05;;;;;;;5.10;2.23;;;21.00;99.90;;;;;;5023029;28;20205;-56
2023/08/27 08:55:32;;;;;;;4.07;2.30;;;21.00;99.90;;;;;;5023509;28;20221;-56
2023/08/27 08:58:08;;;;;;;6.37;2.67;;;21.00;99.90;;;;;;5022840;28;20207;-59
2023/08/27 09:00:34;;;;;;;2.10;1.90;;;21.00;99.90;;;;;;5020458;28;20179;-59
2023/08/27 09:03:02;;;;;;;5.83;2.40;;;21.00;99.90;;;;;;5022624;28;20187;-64
2023/08/27 09:05:30;;;;;;;4.13;2.37;;;21.10;99.90;;;;;;5042117;28;20237;-60
2023/08/27 09:07:57;;;;;;;4.70;2.40;;;21.00;99.90;;;;;;5041493;28;20214;-62
2023/08/27 09:10:24;;;;;;;3.00;2.20;;;21.20;99.90;;;;;;5024707;28;20171;-60
2023/08/27 09:12:56;;;;;;;2.47;2.27;;;21.20;99.90;;;;;;5022956;28;20278;-60
2023/08/27 09:15:22;;;;;;;4.17;2.13;;;21.30;99.90;;;;;;5031111;28;20190;-61
2023/08/27 09:17:48;;;;;;;3.93;2.30;;;21.30;99.90;;;;;;5044932;28;20214;-60
2023/08/27 09:20:14;;;;;;;3.17;2.10;;;21.40;99.90;;;;;;5025026;28;20564;-56
2023/08/27 09:22:43;;;;;;;2.67;2.30;;;21.50;99.90;;;;;;5019768;28;20222;-65
2023/08/27 09:25:11;;;;;;;2.20;2.00;;;21.60;99.90;;;;;;5017074;28;20195;-62
2023/08/27 09:27:37;;;;;;;2.43;2.20;;;21.60;99.90;;;;;;5019259;28;20207;-65
2023/08/27 09:30:03;;;;;;;2.10;2.00;;;21.60;99.90;;;;;;5021652;28;20919;-57
2023/08/27 09:32:29;;;;;;;2.43;1.70;;;21.50;99.90;;;;;;5017509;28;20225;-56
2023/08/27 09:34:59;;;;;;;3.87;2.47;;;21.40;99.90;;;;;;5020070;28;20313;-60
2023/08/27 09:37:28;;;;;;;5.47;1.73;;;21.50;99.90;;;;;;5017155;28;20244;-60
2023/08/27 09:39:55;;;;;;;3.27;2.07;;;21.50;99.20;;;;;;5023965;28;20220;-70
2023/08/27 09:42:24;;;;;;;1.93;1.73;;;21.60;99.30;;;;;;5028169;28;20217;-75
2023/08/27 09:44:51;;;;;;;4.10;1.83;;;21.50;99.90;;;;;;5021933;28;20794;-72
2023/08/27 09:47:27;;;;;;;2.90;1.80;;;21.50;99.80;;;;;;5022458;28;20237;-64
2023/08/27 09:49:53;;;;;;;2.17;2.07;;;21.40;99.90;;;;;;5024555;28;20809;-63
2023/08/27 09:52:26;;;;;;;4.40;2.57;;;21.40;99.90;;;;;;5020065;28;20690;-62
2023/08/27 09:54:52;;;;;;;2.73;2.30;;;21.50;99.90;;;;;;5024173;28;20559;-66
2023/08/27 09:57:19;;;;;;;3.13;2.30;;;21.50;99.80;;;;;;5005598;28;20210;-62
2023/08/27 09:59:46;;;;;;;2.07;1.87;;;21.70;99.90;;;;;;5007930;28;20697;-64
2023/08/27 10:02:15;;;;;;;4.97;1.93;;;21.60;99.90;;;;;;5017448;28;20198;-56
2023/08/27 10:04:56;;;;;;;7.07;3.23;;;21.50;99.90;;;;;;5001169;28;20207;-58
2023/08/27 10:07:23;;;;;;;2.33;1.63;;;21.40;99.90;;;;;;5015620;28;20204;-65
2023/08/27 10:09:50;;;;;;;2.10;1.90;;;21.60;99.90;;;;;;5018977;28;20195;-61
2023/08/27 10:12:16;;;;;;;1.93;1.73;;;21.70;99.60;;;;;;5024604;28;20196;-64
2023/08/27 10:14:44;;;;;;;2.43;1.97;;;21.40;99.90;;;;;;4999837;28;20814;-63
2023/08/27 10:17:15;;;;;;;3.70;2.10;;;21.40;99.90;;;;;;5006858;28;20849;-66
2023/08/27 10:19:40;;;;;;;2.17;1.90;;;21.50;99.90;;;;;;5001443;28;20203;-65
2023/08/27 10:22:06;;;;;;;2.33;1.73;;;21.50;99.90;;;;;;5002982;28;20207;-61
2023/08/27 10:24:33;;;;;;;3.73;2.00;;;21.60;99.10;;;;;;5021186;28;20337;-61
2023/08/27 10:27:00;;;;;;;2.20;2.00;;;21.70;98.90;;;;;;5022258;28;20303;-60
2023/08/27 10:29:27;;;;;;;3.53;1.70;;;21.70;99.30;;;;;;4999474;28;20210;-61
2023/08/27 10:31:53;;;;;;;3.47;2.10;;;21.70;98.00;;;;;;5018068;28;20279;-63
2023/08/27 10:34:19;;;;;;;2.00;1.70;;;21.60;98.20;;;;;;5004903;28;20230;-64
2023/08/27 10:36:46;;;;;;;5.23;3.57;;;21.50;98.30;;;;;;4997525;28;20234;-58
2023/08/27 10:39:14;;;;;;;3.83;2.93;;;21.40;99.90;;;;;;5026198;28;20195;-57
2023/08/27 10:41:40;;;;;;;5.53;3.83;;;21.40;99.90;;;;;;5022073;28;20222;-58
2023/08/27 10:44:09;;;;;;;2.97;2.43;;;21.40;99.90;;;;;;5007867;28;21086;-58
2023/08/27 10:46:35;;;;;;;6.10;3.50;;;21.50;99.90;;;;;;5020832;28;20211;-59
2023/08/27 10:49:14;;;;;;;6.23;3.63;;;21.70;99.90;;;;;;5026206;28;20335;-62
2023/08/27 10:51:40;;;;;;;4.50;2.60;;;21.80;99.90;;;;;;5025029;28;20211;-59
2023/08/27 10:54:07;;;;;;;2.60;1.80;;;21.70;98.80;;;;;;5004265;28;20189;-61
2023/08/27 10:56:39;;;;;;;5.40;2.67;;;21.90;98.00;;;;;;5006863;28;20195;-60
2023/08/27 10:59:09;;;;;;;2.17;1.97;;;21.90;98.90;;;;;;5025411;28;20198;-61
2023/08/27 11:01:37;;;;;;;4.40;2.37;;;21.60;98.50;;;;;;5023714;28;20298;-61
2023/08/27 11:04:06;;;;;;;2.43;1.63;;;21.70;98.30;;;;;;5001806;28;20238;-59
2023/08/27 11:06:33;;;;;;;2.97;2.00;;;21.70;98.00;;;;;;5020035;28;20270;-64
2023/08/27 11:08:59;;;;;;;2.50;1.77;;;21.70;99.50;;;;;;5018430;28;20286;-62
2023/08/27 11:11:26;;;;;;;3.63;1.80;;;21.80;99.40;;;;;;5017406;28;20199;-75
2023/08/27 11:14:08;;;;;;;2.57;2.00;;;21.80;99.00;;;;;;5000079;28;20387;-60
2023/08/27 11:17:04;;;;;;;4.40;2.20;;;21.80;98.80;;;;;;4996909;28;20211;-61
2023/08/27 11:19:31;;;;;;;2.40;1.97;;;21.70;99.60;;;;;;4995603;28;20199;-63
2023/08/27 11:22:14;;;;;;;2.47;1.67;;;21.80;99.40;;;;;;4995831;28;20246;-66
2023/08/27 11:24:44;;;;;;;6.50;2.37;;;21.80;99.40;;;;;;5015225;28;20202;-71
2023/08/27 11:27:11;;;;;;;2.70;1.83;;;21.80;99.70;;;;;;4997856;28;20553;-63
2023/08/27 11:29:42;;;;;;;4.53;2.23;;;21.80;98.70;;;;;;5016002;28;20286;-62
2023/08/27 11:32:09;;;;;;;4.90;2.37;;;21.80;98.80;;;;;;5016291;28;20686;-63
2023/08/27 11:34:38;;;;;;;2.37;1.67;;;21.70;99.30;;;;;;5016380;28;20211;-61
2023/08/27 11:37:07;;;;;;;5.57;2.23;;;21.80;99.20;;;;;;4995852;28;20222;-62
2023/08/27 11:39:35;;;;;;;3.17;2.17;;;21.90;98.50;;;;;;4995727;28;20195;-61
2023/08/27 11:42:00;;;;;;;2.67;1.93;;;22.00;99.40;;;;;;5020593;28;20668;-60
2023/08/27 11:44:26;;;;;;;2.10;1.90;;;22.10;98.20;;;;;;5018156;28;20676;-71
2023/08/27 11:46:52;;;;;;;3.13;2.17;;;22.10;98.80;;;;;;5000695;28;20229;-62
2023/08/27 11:49:28;;;;;;;3.63;2.17;;;22.20;99.80;;;;;;5001019;28;20275;-62
2023/08/27 11:51:58;;;;;;;2.57;2.17;;;22.30;99.20;;;;;;5017007;28;20278;-58
2023/08/27 11:54:30;;;;;;;2.83;1.70;;;22.30;98.30;;;;;;5000954;28;20207;-59
2023/08/27 11:56:56;;;;;;;3.03;2.50;;;22.40;98.30;;;;;;5024552;28;20229;-59
2023/08/27 11:59:25;;;;;;;2.27;1.83;;;22.40;97.90;;;;;;5021755;28;20286;-60
2023/08/27 12:01:50;;;;;;;2.33;2.10;;;22.30;98.70;;;;;;4996897;28;20301;-61
2023/08/27 12:04:16;;;;;;;3.57;2.83;;;22.30;98.70;;;;;;5020463;28;20673;-61
2023/08/27 12:06:52;;;;;;;3.77;2.40;;;22.20;99.20;;;;;;5020303;28;20986;-61
2023/08/27 12:09:23;;;;;;;3.10;2.67;;;22.30;99.30;;;;;;5003395;28;20647;-80
2023/08/27 12:11:49;;;;;;;5.40;2.27;;;22.30;98.60;;;;;;5003365;28;20470;-57
2023/08/27 12:14:23;;;;;;;2.53;2.23;;;22.30;98.60;;;;;;5017740;28;20235;-63
2023/08/27 12:16:48;;;;;;;5.53;2.43;;;22.20;99.20;;;;;;4993340;28;20303;-64
2023/08/27 12:19:19;;;;;;;2.33;2.10;;;22.20;98.40;;;;;;4998256;28;20838;-64
2023/08/27 12:21:52;;;;;;;2.53;2.20;;;22.20;99.20;;;;;;5053325;22;20979;-64
2023/08/27 12:24:43;;;;;;;5.33;2.00;;;22.10;98.90;;;;;;5036840;28;20551;-64
2023/08/27 12:27:11;;;;;;;2.67;2.23;;;22.20;98.20;;;;;;5058142;22;20233;-63
2023/08/27 12:29:38;;;;;;;3.33;1.93;;;22.30;98.00;;;;;;5042469;28;20678;-64
2023/08/27 12:32:12;;;;;;;3.00;2.70;;;22.20;97.80;;;;;;5038070;28;20197;-63
2023/08/27 12:34:39;;;;;;;2.43;2.00;;;22.20;97.50;;;;;;5047955;28;20201;-64
2023/08/27 12:37:06;;;;;;;2.40;2.30;;;22.20;97.20;;;;;;5059158;28;20202;-62
2023/08/27 12:39:32;;;;;;;3.87;2.53;;;22.20;97.60;;;;;;5041928;28;20713;-64
2023/08/27 12:41:59;;;;;;;2.20;1.83;;;22.10;98.60;;;;;;5045725;28;20296;-64
2023/08/27 12:44:25;;;;;;;1.77;1.67;;;22.10;98.60;;;;;;5053586;28;20206;-63
2023/08/27 12:46:50;;;;;;;4.43;2.23;;;22.20;98.00;;;;;;5037751;28;20203;-63